MLD026 LUKK-LYTV
Flight info
| Callsign | MLD026 |
|---|---|
| Flight time | 1h 28m |
| Altitude | 34000 |
| Route | POGAV DCT BRV DCT ANASA DCT RAMAP DCT POD |
| Aircraft | T134/M-SDRWY/C |
Departure
| Time | 2026-05-06 07:09 |
|---|---|
| Airport | Chişinău International Airport (LUKK) |
Arrival
| Time | 2026-05-06 08:37 |
|---|---|
| Airport | Tivat Airport (LYTV) |
| Time | Latitude | Longitude | Altitude | Speed | Heading |
|---|---|---|---|---|---|
| 2026-05-06 06:38 | 46.93362 | 28.93598 | 333 ft | 0 kts | 7° |
| 2026-05-06 07:02 | 46.93371 | 28.93599 | 334 ft | 2 kts | 8° |
| 2026-05-06 07:02 | 46.93382 | 28.93602 | 334 ft | 0 kts | 8° |
| 2026-05-06 07:02 | 46.93386 | 28.93603 | 334 ft | 2 kts | 10° |
| 2026-05-06 07:02 | 46.93406 | 28.93641 | 334 ft | 8 kts | 93° |
| 2026-05-06 07:03 | 46.93397 | 28.93765 | 334 ft | 15 kts | 97° |
| 2026-05-06 07:03 | 46.93370 | 28.93840 | 334 ft | 8 kts | 172° |
| 2026-05-06 07:03 | 46.93306 | 28.93833 | 334 ft | 9 kts | 189° |
| 2026-05-06 07:03 | 46.93233 | 28.93816 | 334 ft | 11 kts | 186° |
| 2026-05-06 07:04 | 46.93151 | 28.93810 | 334 ft | 12 kts | 160° |
| 2026-05-06 07:04 | 46.93115 | 28.93922 | 334 ft | 13 kts | 95° |
| 2026-05-06 07:04 | 46.93103 | 28.94067 | 334 ft | 15 kts | 96° |
| 2026-05-06 07:04 | 46.93090 | 28.94229 | 334 ft | 16 kts | 96° |
| 2026-05-06 07:05 | 46.93077 | 28.94407 | 334 ft | 18 kts | 97° |
| 2026-05-06 07:05 | 46.93061 | 28.94599 | 333 ft | 19 kts | 98° |
| 2026-05-06 07:05 | 46.93045 | 28.94806 | 333 ft | 21 kts | 92° |
| 2026-05-06 07:05 | 46.93031 | 28.95014 | 333 ft | 12 kts | 100° |
| 2026-05-06 07:06 | 46.92989 | 28.95101 | 333 ft | 11 kts | 164° |
| 2026-05-06 07:06 | 46.92901 | 28.95111 | 333 ft | 13 kts | 184° |
| 2026-05-06 07:06 | 46.92824 | 28.95063 | 333 ft | 11 kts | 255° |
| 2026-05-06 07:06 | 46.92819 | 28.95007 | 333 ft | 0 kts | 268° |
| 2026-05-06 07:08 | 46.92817 | 28.94917 | 334 ft | 37 kts | 271° |
| 2026-05-06 07:09 | 46.92801 | 28.94157 | 334 ft | 108 kts | 268° |
| 2026-05-06 07:09 | 46.92770 | 28.92780 | 340 ft | 161 kts | 269° |
| 2026-05-06 07:09 | 46.92759 | 28.91026 | 700 ft | 179 kts | 269° |
| 2026-05-06 07:09 | 46.92771 | 28.89199 | 1375 ft | 187 kts | 271° |
| 2026-05-06 07:10 | 46.92861 | 28.87280 | 2064 ft | 195 kts | 276° |
| 2026-05-06 07:10 | 46.92932 | 28.85331 | 2807 ft | 193 kts | 255° |
| 2026-05-06 07:10 | 46.92337 | 28.83518 | 3172 ft | 211 kts | 238° |
| 2026-05-06 07:10 | 46.91460 | 28.81726 | 3548 ft | 227 kts | 233° |
| 2026-05-06 07:11 | 46.90583 | 28.79688 | 3848 ft | 243 kts | 243° |
| 2026-05-06 07:11 | 46.89928 | 28.77454 | 4426 ft | 248 kts | 254° |
| 2026-05-06 07:11 | 46.89614 | 28.74837 | 4615 ft | 267 kts | 260° |
| 2026-05-06 07:11 | 46.89304 | 28.72264 | 5486 ft | 254 kts | 258° |
| 2026-05-06 07:12 | 46.89027 | 28.69753 | 6140 ft | 251 kts | 262° |
| 2026-05-06 07:12 | 46.88860 | 28.67211 | 6524 ft | 258 kts | 263° |
| 2026-05-06 07:12 | 46.88502 | 28.64640 | 7039 ft | 258 kts | 251° |
| 2026-05-06 07:12 | 46.87799 | 28.62252 | 7459 ft | 262 kts | 243° |
| 2026-05-06 07:13 | 46.86939 | 28.59798 | 7644 ft | 278 kts | 243° |
| 2026-05-06 07:13 | 46.86113 | 28.57228 | 8024 ft | 283 kts | 246° |
| 2026-05-06 07:13 | 46.85474 | 28.54566 | 8769 ft | 274 kts | 256° |
| 2026-05-06 07:13 | 46.85110 | 28.51804 | 8970 ft | 289 kts | 262° |
| 2026-05-06 07:14 | 46.84799 | 28.48832 | 9282 ft | 297 kts | 262° |
| 2026-05-06 07:14 | 46.84439 | 28.45938 | 9915 ft | 292 kts | 257° |
| 2026-05-06 07:14 | 46.83794 | 28.43089 | 10234 ft | 301 kts | 248° |
| 2026-05-06 07:14 | 46.82874 | 28.40295 | 10390 ft | 315 kts | 241° |
| 2026-05-06 07:15 | 46.81743 | 28.37513 | 10820 ft | 318 kts | 239° |
| 2026-05-06 07:15 | 46.80544 | 28.34790 | 11026 ft | 330 kts | 236° |
| 2026-05-06 07:15 | 46.79275 | 28.31902 | 11199 ft | 340 kts | 241° |
| 2026-05-06 07:15 | 46.78254 | 28.28798 | 11446 ft | 348 kts | 250° |
| 2026-05-06 07:16 | 46.77544 | 28.25367 | 11600 ft | 357 kts | 258° |
| 2026-05-06 07:16 | 46.77092 | 28.21851 | 12025 ft | 356 kts | 261° |
| 2026-05-06 07:16 | 46.76518 | 28.18358 | 12542 ft | 353 kts | 251° |
| 2026-05-06 07:16 | 46.75522 | 28.15080 | 12724 ft | 363 kts | 243° |
| 2026-05-06 07:17 | 46.74274 | 28.11800 | 12856 ft | 372 kts | 239° |
| 2026-05-06 07:17 | 46.72913 | 28.08645 | 13290 ft | 370 kts | 237° |
| 2026-05-06 07:17 | 46.71492 | 28.05542 | 13821 ft | 366 kts | 236° |
| 2026-05-06 07:17 | 46.70044 | 28.02502 | 13999 ft | 374 kts | 235° |
| 2026-05-06 07:18 | 46.68470 | 27.99389 | 14071 ft | 384 kts | 233° |
| 2026-05-06 07:18 | 46.66822 | 27.96400 | 14557 ft | 380 kts | 230° |
| 2026-05-06 07:18 | 46.65116 | 27.93496 | 15172 ft | 373 kts | 234° |
| 2026-05-06 07:18 | 46.63775 | 27.90286 | 15348 ft | 380 kts | 243° |
| 2026-05-06 07:19 | 46.62508 | 27.86837 | 15510 ft | 388 kts | 241° |
| 2026-05-06 07:19 | 46.61148 | 27.83535 | 16086 ft | 381 kts | 238° |
| 2026-05-06 07:19 | 46.59655 | 27.80379 | 16597 ft | 377 kts | 234° |
| 2026-05-06 07:19 | 46.58023 | 27.77393 | 16703 ft | 387 kts | 231° |
| 2026-05-06 07:20 | 46.56274 | 27.74350 | 16775 ft | 397 kts | 230° |
| 2026-05-06 07:20 | 46.54457 | 27.71333 | 17014 ft | 400 kts | 229° |
| 2026-05-06 07:20 | 46.52613 | 27.68301 | 17426 ft | 398 kts | 229° |
| 2026-05-06 07:20 | 46.50802 | 27.65285 | 17806 ft | 397 kts | 232° |
| 2026-05-06 07:21 | 46.49336 | 27.61953 | 18173 ft | 396 kts | 242° |
| 2026-05-06 07:21 | 46.47910 | 27.58533 | 18538 ft | 396 kts | 240° |
| 2026-05-06 07:21 | 46.46514 | 27.55155 | 18895 ft | 394 kts | 240° |
| 2026-05-06 07:21 | 46.45099 | 27.51750 | 19257 ft | 394 kts | 240° |
| 2026-05-06 07:22 | 46.43681 | 27.48333 | 19617 ft | 393 kts | 240° |
| 2026-05-06 07:22 | 46.42292 | 27.44993 | 19965 ft | 394 kts | 240° |
| 2026-05-06 07:22 | 46.40731 | 27.41634 | 19933 ft | 407 kts | 235° |
| 2026-05-06 07:22 | 46.39088 | 27.38254 | 19886 ft | 419 kts | 236° |
| 2026-05-06 07:23 | 46.37464 | 27.34673 | 19864 ft | 427 kts | 238° |
| 2026-05-06 07:23 | 46.35760 | 27.31100 | 19857 ft | 435 kts | 234° |
| 2026-05-06 07:23 | 46.34042 | 27.27527 | 19870 ft | 441 kts | 237° |
| 2026-05-06 07:23 | 46.32373 | 27.23807 | 20239 ft | 435 kts | 235° |
| 2026-05-06 07:24 | 46.30648 | 27.20305 | 20566 ft | 431 kts | 236° |
| 2026-05-06 07:24 | 46.29082 | 27.16749 | 20756 ft | 431 kts | 237° |
| 2026-05-06 07:24 | 46.27332 | 27.13184 | 20973 ft | 431 kts | 235° |
| 2026-05-06 07:24 | 46.25694 | 27.09608 | 21205 ft | 431 kts | 239° |
| 2026-05-06 07:25 | 46.24004 | 27.06034 | 21440 ft | 432 kts | 234° |
| 2026-05-06 07:25 | 46.22322 | 27.02441 | 21674 ft | 432 kts | 239° |
| 2026-05-06 07:25 | 46.20676 | 26.98852 | 21903 ft | 431 kts | 234° |
| 2026-05-06 07:25 | 46.18949 | 26.95273 | 22129 ft | 432 kts | 239° |
| 2026-05-06 07:26 | 46.17333 | 26.91645 | 22353 ft | 432 kts | 234° |
| 2026-05-06 07:26 | 46.15577 | 26.88074 | 22578 ft | 433 kts | 238° |
| 2026-05-06 07:26 | 46.13972 | 26.84411 | 22834 ft | 432 kts | 236° |
| 2026-05-06 07:26 | 46.12244 | 26.80928 | 23111 ft | 431 kts | 237° |
| 2026-05-06 07:27 | 46.10657 | 26.77279 | 23383 ft | 431 kts | 237° |
| 2026-05-06 07:27 | 46.08919 | 26.73776 | 23654 ft | 430 kts | 236° |
| 2026-05-06 07:27 | 46.07334 | 26.70141 | 23933 ft | 429 kts | 238° |
| 2026-05-06 07:27 | 46.05598 | 26.66608 | 24229 ft | 429 kts | 235° |
| 2026-05-06 07:28 | 46.03995 | 26.62977 | 24502 ft | 429 kts | 239° |
| 2026-05-06 07:28 | 46.02301 | 26.59482 | 24749 ft | 429 kts | 235° |
| 2026-05-06 07:28 | 45.99002 | 26.52339 | 25248 ft | 430 kts | 235° |
| 2026-05-06 07:29 | 45.97349 | 26.48705 | 25505 ft | 430 kts | 240° |
| 2026-05-06 07:29 | 45.95788 | 26.45358 | 25744 ft | 431 kts | 235° |
| 2026-05-06 07:29 | 45.94091 | 26.41700 | 26003 ft | 430 kts | 240° |
| 2026-05-06 07:29 | 45.92437 | 26.38096 | 26272 ft | 431 kts | 235° |
| 2026-05-06 07:30 | 45.90771 | 26.34541 | 26557 ft | 431 kts | 240° |
| 2026-05-06 07:30 | 45.89151 | 26.30957 | 26854 ft | 432 kts | 234° |
| 2026-05-06 07:30 | 45.87465 | 26.27395 | 27172 ft | 431 kts | 240° |
| 2026-05-06 07:30 | 45.85827 | 26.23731 | 27489 ft | 432 kts | 235° |
| 2026-05-06 07:31 | 45.84139 | 26.20193 | 27771 ft | 432 kts | 240° |
| 2026-05-06 07:31 | 45.82539 | 26.16571 | 28030 ft | 433 kts | 236° |
| 2026-05-06 07:31 | 45.80825 | 26.13005 | 28273 ft | 431 kts | 240° |
| 2026-05-06 07:31 | 45.79239 | 26.09384 | 28513 ft | 430 kts | 236° |
| 2026-05-06 07:32 | 45.77552 | 26.05895 | 28747 ft | 428 kts | 240° |
| 2026-05-06 07:32 | 45.75977 | 26.02274 | 28980 ft | 428 kts | 237° |
| 2026-05-06 07:32 | 45.74292 | 25.98801 | 29195 ft | 426 kts | 240° |
| 2026-05-06 07:32 | 45.72755 | 25.95244 | 29395 ft | 426 kts | 237° |
| 2026-05-06 07:33 | 45.71066 | 25.91781 | 29593 ft | 425 kts | 240° |
| 2026-05-06 07:33 | 45.69515 | 25.88181 | 29795 ft | 425 kts | 238° |
| 2026-05-06 07:33 | 45.67836 | 25.84747 | 29998 ft | 424 kts | 240° |
| 2026-05-06 07:33 | 45.66436 | 25.81475 | 30180 ft | 424 kts | 239° |
| 2026-05-06 07:34 | 45.64737 | 25.78013 | 30380 ft | 425 kts | 239° |
| 2026-05-06 07:34 | 45.63189 | 25.74437 | 30577 ft | 424 kts | 239° |
| 2026-05-06 07:34 | 45.61498 | 25.71018 | 30745 ft | 426 kts | 238° |
| 2026-05-06 07:34 | 45.59923 | 25.67469 | 30870 ft | 427 kts | 239° |
| 2026-05-06 07:35 | 45.58189 | 25.63997 | 31003 ft | 429 kts | 237° |
| 2026-05-06 07:35 | 45.56454 | 25.60538 | 31137 ft | 431 kts | 236° |
| 2026-05-06 07:35 | 45.54640 | 25.57166 | 31254 ft | 431 kts | 240° |
| 2026-05-06 07:35 | 45.53122 | 25.53499 | 31361 ft | 432 kts | 238° |
| 2026-05-06 07:36 | 45.51197 | 25.50200 | 31476 ft | 436 kts | 229° |
| 2026-05-06 07:36 | 45.49046 | 25.47138 | 31591 ft | 437 kts | 229° |
| 2026-05-06 07:36 | 45.46941 | 25.44008 | 31710 ft | 438 kts | 229° |
| 2026-05-06 07:36 | 45.44841 | 25.40884 | 31800 ft | 440 kts | 229° |
| 2026-05-06 07:37 | 45.40596 | 25.34555 | 31940 ft | 444 kts | 229° |
| 2026-05-06 07:37 | 45.36310 | 25.28177 | 32092 ft | 448 kts | 229° |
| 2026-05-06 07:38 | 45.32012 | 25.21799 | 32254 ft | 450 kts | 229° |
| 2026-05-06 07:38 | 45.27708 | 25.15418 | 32466 ft | 450 kts | 229° |
| 2026-05-06 07:39 | 45.25559 | 25.12210 | 32739 ft | 448 kts | 231° |
| 2026-05-06 07:39 | 45.23772 | 25.08593 | 32966 ft | 442 kts | 245° |
| 2026-05-06 07:39 | 45.22364 | 25.04733 | 33147 ft | 444 kts | 245° |
| 2026-05-06 07:39 | 45.20945 | 25.00884 | 33303 ft | 447 kts | 245° |
| 2026-05-06 07:40 | 45.19497 | 24.96949 | 33446 ft | 451 kts | 245° |
| 2026-05-06 07:40 | 45.18037 | 24.92991 | 33591 ft | 455 kts | 245° |
| 2026-05-06 07:40 | 45.16582 | 24.89053 | 33727 ft | 457 kts | 245° |
| 2026-05-06 07:40 | 45.15105 | 24.85054 | 33851 ft | 459 kts | 245° |
| 2026-05-06 07:41 | 45.12138 | 24.77029 | 33981 ft | 463 kts | 245° |
| 2026-05-06 07:41 | 45.09161 | 24.68990 | 34047 ft | 461 kts | 245° |
| 2026-05-06 07:42 | 45.06201 | 24.61019 | 34045 ft | 461 kts | 245° |
| 2026-05-06 07:42 | 45.03224 | 24.53008 | 34031 ft | 464 kts | 245° |
| 2026-05-06 07:43 | 45.00231 | 24.44961 | 34028 ft | 463 kts | 245° |
| 2026-05-06 07:43 | 44.97370 | 24.37279 | 34024 ft | 462 kts | 245° |
| 2026-05-06 07:44 | 44.94864 | 24.30556 | 34019 ft | 462 kts | 245° |
| 2026-05-06 07:44 | 44.91868 | 24.22523 | 34014 ft | 462 kts | 245° |
| 2026-05-06 07:45 | 44.88890 | 24.14556 | 34021 ft | 461 kts | 245° |
| 2026-05-06 07:45 | 44.85901 | 24.06567 | 34031 ft | 461 kts | 245° |
| 2026-05-06 07:46 | 44.82928 | 23.98626 | 34034 ft | 461 kts | 245° |
| 2026-05-06 07:46 | 44.79935 | 23.90643 | 34037 ft | 460 kts | 245° |
| 2026-05-06 07:47 | 44.76963 | 23.82737 | 34039 ft | 458 kts | 245° |
| 2026-05-06 07:47 | 44.73980 | 23.74810 | 34038 ft | 457 kts | 245° |
| 2026-05-06 07:48 | 44.71016 | 23.66937 | 34036 ft | 457 kts | 245° |
| 2026-05-06 07:48 | 44.68063 | 23.59103 | 34035 ft | 457 kts | 245° |
| 2026-05-06 07:49 | 44.65089 | 23.51230 | 34034 ft | 457 kts | 245° |
| 2026-05-06 07:49 | 44.62098 | 23.43321 | 34034 ft | 456 kts | 246° |
| 2026-05-06 07:50 | 44.59133 | 23.35481 | 34035 ft | 456 kts | 246° |
| 2026-05-06 07:50 | 44.56175 | 23.27674 | 34040 ft | 457 kts | 245° |
| 2026-05-06 07:51 | 44.53191 | 23.19809 | 34040 ft | 456 kts | 245° |
| 2026-05-06 07:51 | 44.50216 | 23.11978 | 34040 ft | 456 kts | 245° |
| 2026-05-06 07:52 | 44.47251 | 23.04178 | 34040 ft | 456 kts | 245° |
| 2026-05-06 07:52 | 44.44282 | 22.96380 | 34039 ft | 455 kts | 245° |
| 2026-05-06 07:53 | 44.41304 | 22.88571 | 34036 ft | 454 kts | 245° |
| 2026-05-06 07:53 | 44.38335 | 22.80794 | 34034 ft | 453 kts | 245° |
| 2026-05-06 07:54 | 44.35362 | 22.73022 | 34033 ft | 453 kts | 245° |
| 2026-05-06 07:54 | 44.32387 | 22.65252 | 34033 ft | 453 kts | 245° |
| 2026-05-06 07:55 | 44.29440 | 22.57574 | 34033 ft | 452 kts | 246° |
| 2026-05-06 07:55 | 44.26706 | 22.50454 | 34034 ft | 451 kts | 246° |
| 2026-05-06 07:56 | 44.23980 | 22.44397 | 34039 ft | 454 kts | 241° |
| 2026-05-06 07:56 | 44.20537 | 22.37053 | 34048 ft | 453 kts | 241° |
| 2026-05-06 07:57 | 44.17072 | 22.29687 | 34057 ft | 453 kts | 240° |
| 2026-05-06 07:57 | 44.13628 | 22.22373 | 34061 ft | 452 kts | 241° |
| 2026-05-06 07:58 | 44.10207 | 22.15112 | 34062 ft | 452 kts | 241° |
| 2026-05-06 07:58 | 44.06755 | 22.07797 | 34061 ft | 451 kts | 241° |
| 2026-05-06 07:59 | 44.03310 | 22.00497 | 34062 ft | 452 kts | 241° |
| 2026-05-06 07:59 | 43.99884 | 21.93249 | 34069 ft | 451 kts | 241° |
| 2026-05-06 08:00 | 43.96425 | 21.85935 | 33966 ft | 453 kts | 241° |
| 2026-05-06 08:00 | 43.92992 | 21.78687 | 33760 ft | 452 kts | 241° |
| 2026-05-06 08:01 | 43.91260 | 21.75032 | 33656 ft | 451 kts | 241° |
| 2026-05-06 08:01 | 43.89566 | 21.71409 | 33696 ft | 447 kts | 244° |
| 2026-05-06 08:01 | 43.88041 | 21.67704 | 33829 ft | 446 kts | 242° |
| 2026-05-06 08:01 | 43.86375 | 21.64058 | 33959 ft | 444 kts | 244° |
| 2026-05-06 08:02 | 43.82937 | 21.56919 | 34067 ft | 449 kts | 241° |
| 2026-05-06 08:02 | 43.79494 | 21.49702 | 34062 ft | 452 kts | 241° |
| 2026-05-06 08:03 | 43.76046 | 21.42467 | 34061 ft | 452 kts | 242° |
| 2026-05-06 08:03 | 43.72584 | 21.35216 | 34052 ft | 451 kts | 242° |
| 2026-05-06 08:04 | 43.69125 | 21.27975 | 34053 ft | 451 kts | 241° |
| 2026-05-06 08:04 | 43.65682 | 21.20773 | 34058 ft | 451 kts | 241° |
| 2026-05-06 08:05 | 43.62227 | 21.13561 | 33841 ft | 452 kts | 241° |
| 2026-05-06 08:05 | 43.60509 | 21.09983 | 33654 ft | 448 kts | 241° |
| 2026-05-06 08:05 | 43.58783 | 21.06387 | 33436 ft | 446 kts | 241° |
| 2026-05-06 08:06 | 43.57085 | 21.02846 | 33207 ft | 444 kts | 241° |
| 2026-05-06 08:06 | 43.55400 | 20.99329 | 32980 ft | 443 kts | 241° |
| 2026-05-06 08:06 | 43.53700 | 20.95783 | 32734 ft | 443 kts | 241° |
| 2026-05-06 08:06 | 43.52007 | 20.92251 | 32351 ft | 442 kts | 241° |
| 2026-05-06 08:07 | 43.50315 | 20.88725 | 31967 ft | 438 kts | 241° |
| 2026-05-06 08:07 | 43.48649 | 20.85254 | 31586 ft | 435 kts | 241° |
| 2026-05-06 08:07 | 43.46988 | 20.81834 | 31207 ft | 433 kts | 239° |
| 2026-05-06 08:07 | 43.45242 | 20.78485 | 30799 ft | 431 kts | 240° |
| 2026-05-06 08:08 | 43.43565 | 20.75090 | 30377 ft | 429 kts | 240° |
| 2026-05-06 08:08 | 43.41902 | 20.71698 | 29970 ft | 427 kts | 239° |
| 2026-05-06 08:08 | 43.40033 | 20.68534 | 29579 ft | 427 kts | 234° |
| 2026-05-06 08:08 | 43.38239 | 20.65361 | 29185 ft | 423 kts | 237° |
| 2026-05-06 08:09 | 43.36442 | 20.62157 | 28784 ft | 421 kts | 237° |
| 2026-05-06 08:09 | 43.34582 | 20.59045 | 28377 ft | 422 kts | 229° |
| 2026-05-06 08:09 | 43.32392 | 20.56397 | 27941 ft | 423 kts | 225° |
| 2026-05-06 08:09 | 43.30211 | 20.53787 | 27485 ft | 415 kts | 225° |
| 2026-05-06 08:10 | 43.27957 | 20.51371 | 27014 ft | 408 kts | 220° |
| 2026-05-06 08:10 | 43.25646 | 20.49183 | 26539 ft | 403 kts | 216° |
| 2026-05-06 08:10 | 43.23282 | 20.47177 | 26063 ft | 399 kts | 216° |
| 2026-05-06 08:10 | 43.20922 | 20.45159 | 25572 ft | 398 kts | 216° |
| 2026-05-06 08:11 | 43.18569 | 20.43142 | 25054 ft | 397 kts | 216° |
| 2026-05-06 08:11 | 43.16277 | 20.41172 | 24574 ft | 392 kts | 216° |
| 2026-05-06 08:11 | 43.14064 | 20.39053 | 24099 ft | 385 kts | 221° |
| 2026-05-06 08:11 | 43.11940 | 20.36842 | 23632 ft | 380 kts | 221° |
| 2026-05-06 08:12 | 43.09874 | 20.34627 | 23174 ft | 376 kts | 223° |
| 2026-05-06 08:12 | 43.07875 | 20.32374 | 22728 ft | 372 kts | 222° |
| 2026-05-06 08:12 | 43.05898 | 20.30146 | 22285 ft | 369 kts | 222° |
| 2026-05-06 08:12 | 43.03934 | 20.27924 | 21851 ft | 366 kts | 222° |
| 2026-05-06 08:13 | 43.01998 | 20.25727 | 21369 ft | 363 kts | 222° |
| 2026-05-06 08:13 | 43.00065 | 20.23533 | 20875 ft | 359 kts | 222° |
| 2026-05-06 08:13 | 42.98166 | 20.21372 | 20365 ft | 356 kts | 222° |
| 2026-05-06 08:13 | 42.96283 | 20.19227 | 19884 ft | 351 kts | 222° |
| 2026-05-06 08:14 | 42.94432 | 20.17115 | 19463 ft | 345 kts | 222° |
| 2026-05-06 08:14 | 42.92593 | 20.15010 | 19030 ft | 341 kts | 222° |
| 2026-05-06 08:14 | 42.90789 | 20.12941 | 18599 ft | 339 kts | 222° |
| 2026-05-06 08:14 | 42.89009 | 20.10889 | 18106 ft | 338 kts | 222° |
| 2026-05-06 08:15 | 42.87215 | 20.08820 | 17602 ft | 335 kts | 223° |
| 2026-05-06 08:15 | 42.85503 | 20.06761 | 17122 ft | 330 kts | 227° |
| 2026-05-06 08:15 | 42.84013 | 20.04416 | 16644 ft | 325 kts | 236° |
| 2026-05-06 08:15 | 42.82678 | 20.01977 | 16273 ft | 320 kts | 235° |
| 2026-05-06 08:16 | 42.81364 | 19.99563 | 15931 ft | 314 kts | 237° |
| 2026-05-06 08:16 | 42.80405 | 19.96968 | 15573 ft | 307 kts | 256° |
| 2026-05-06 08:16 | 42.79974 | 19.94176 | 15238 ft | 302 kts | 255° |
| 2026-05-06 08:16 | 42.79196 | 19.91515 | 14837 ft | 301 kts | 245° |
| 2026-05-06 08:17 | 42.78205 | 19.89016 | 14442 ft | 299 kts | 240° |
| 2026-05-06 08:17 | 42.77088 | 19.86695 | 14069 ft | 298 kts | 237° |
| 2026-05-06 08:17 | 42.75875 | 19.84412 | 13692 ft | 297 kts | 234° |
| 2026-05-06 08:17 | 42.74610 | 19.82186 | 13382 ft | 293 kts | 233° |
| 2026-05-06 08:18 | 42.73339 | 19.80029 | 13066 ft | 294 kts | 232° |
| 2026-05-06 08:18 | 42.72037 | 19.77881 | 12689 ft | 294 kts | 231° |
| 2026-05-06 08:18 | 42.70748 | 19.75787 | 12279 ft | 292 kts | 231° |
| 2026-05-06 08:18 | 42.69450 | 19.73699 | 11857 ft | 288 kts | 231° |
| 2026-05-06 08:19 | 42.68168 | 19.71654 | 11450 ft | 283 kts | 230° |
| 2026-05-06 08:19 | 42.66901 | 19.69643 | 11117 ft | 278 kts | 230° |
| 2026-05-06 08:19 | 42.65642 | 19.67648 | 10783 ft | 275 kts | 230° |
| 2026-05-06 08:19 | 42.64404 | 19.65689 | 10453 ft | 273 kts | 230° |
| 2026-05-06 08:20 | 42.63176 | 19.63757 | 10188 ft | 268 kts | 230° |
| 2026-05-06 08:20 | 42.61977 | 19.61872 | 9929 ft | 263 kts | 230° |
| 2026-05-06 08:20 | 42.60787 | 19.60001 | 9658 ft | 260 kts | 230° |
| 2026-05-06 08:20 | 42.59614 | 19.58157 | 9389 ft | 258 kts | 230° |
| 2026-05-06 08:21 | 42.58435 | 19.56304 | 9124 ft | 258 kts | 230° |
| 2026-05-06 08:21 | 42.57279 | 19.54485 | 8868 ft | 258 kts | 230° |
| 2026-05-06 08:21 | 42.56099 | 19.52632 | 8612 ft | 259 kts | 229° |
| 2026-05-06 08:21 | 42.54924 | 19.50790 | 8385 ft | 259 kts | 229° |
| 2026-05-06 08:22 | 42.53746 | 19.48953 | 8154 ft | 258 kts | 229° |
| 2026-05-06 08:22 | 42.52532 | 19.47120 | 7742 ft | 265 kts | 227° |
| 2026-05-06 08:22 | 42.51302 | 19.45348 | 7712 ft | 254 kts | 226° |
| 2026-05-06 08:22 | 42.50069 | 19.43647 | 7635 ft | 249 kts | 225° |
| 2026-05-06 08:23 | 42.48839 | 19.41995 | 7304 ft | 254 kts | 224° |
| 2026-05-06 08:23 | 42.47569 | 19.40333 | 6993 ft | 256 kts | 224° |
| 2026-05-06 08:23 | 42.46270 | 19.38688 | 6824 ft | 251 kts | 223° |
| 2026-05-06 08:23 | 42.44984 | 19.37129 | 6594 ft | 251 kts | 221° |
| 2026-05-06 08:24 | 42.43653 | 19.35591 | 6291 ft | 253 kts | 219° |
| 2026-05-06 08:24 | 42.42245 | 19.34132 | 6048 ft | 252 kts | 214° |
| 2026-05-06 08:24 | 42.40804 | 19.32858 | 6005 ft | 245 kts | 210° |
| 2026-05-06 08:24 | 42.39315 | 19.31737 | 5939 ft | 243 kts | 210° |
| 2026-05-06 08:25 | 42.37960 | 19.30316 | 5582 ft | 255 kts | 225° |
| 2026-05-06 08:25 | 42.36714 | 19.28654 | 5608 ft | 246 kts | 222° |
| 2026-05-06 08:25 | 42.35360 | 19.27317 | 5645 ft | 240 kts | 212° |
| 2026-05-06 08:25 | 42.33989 | 19.25987 | 5341 ft | 249 kts | 218° |
| 2026-05-06 08:26 | 42.32681 | 19.24477 | 5272 ft | 237 kts | 222° |
| 2026-05-06 08:26 | 42.31511 | 19.23049 | 5198 ft | 224 kts | 221° |
| 2026-05-06 08:26 | 42.30345 | 19.21634 | 4861 ft | 226 kts | 221° |
| 2026-05-06 08:26 | 42.29185 | 19.20205 | 4640 ft | 224 kts | 221° |
| 2026-05-06 08:27 | 42.28003 | 19.18780 | 4328 ft | 230 kts | 220° |
| 2026-05-06 08:27 | 42.26797 | 19.17387 | 4122 ft | 231 kts | 219° |
| 2026-05-06 08:27 | 42.25573 | 19.16010 | 4096 ft | 224 kts | 219° |
| 2026-05-06 08:27 | 42.24390 | 19.14660 | 3986 ft | 221 kts | 220° |
| 2026-05-06 08:28 | 42.23265 | 19.13313 | 4009 ft | 213 kts | 221° |
| 2026-05-06 08:28 | 42.22171 | 19.11941 | 3945 ft | 213 kts | 223° |
| 2026-05-06 08:28 | 42.21125 | 19.10574 | 3967 ft | 209 kts | 224° |
| 2026-05-06 08:28 | 42.20091 | 19.09179 | 3898 ft | 210 kts | 224° |
| 2026-05-06 08:29 | 42.19071 | 19.07783 | 3884 ft | 211 kts | 224° |
| 2026-05-06 08:29 | 42.18063 | 19.06385 | 3999 ft | 206 kts | 227° |
| 2026-05-06 08:29 | 42.17079 | 19.04863 | 3649 ft | 227 kts | 229° |
| 2026-05-06 08:29 | 42.16116 | 19.03164 | 3589 ft | 224 kts | 240° |
| 2026-05-06 08:30 | 42.15568 | 19.01303 | 3622 ft | 216 kts | 258° |
| 2026-05-06 08:30 | 42.15552 | 18.99268 | 3292 ft | 221 kts | 281° |
| 2026-05-06 08:30 | 42.16060 | 18.97306 | 2992 ft | 224 kts | 297° |
| 2026-05-06 08:30 | 42.16895 | 18.95527 | 2743 ft | 223 kts | 306° |
| 2026-05-06 08:31 | 42.17835 | 18.93904 | 2608 ft | 219 kts | 309° |
| 2026-05-06 08:31 | 42.18829 | 18.92390 | 2361 ft | 217 kts | 313° |
| 2026-05-06 08:31 | 42.19873 | 18.90905 | 2031 ft | 216 kts | 309° |
| 2026-05-06 08:31 | 42.20668 | 18.89257 | 1929 ft | 202 kts | 297° |
| 2026-05-06 08:32 | 42.21297 | 18.87667 | 1917 ft | 188 kts | 299° |
| 2026-05-06 08:32 | 42.21991 | 18.86199 | 1548 ft | 188 kts | 306° |
| 2026-05-06 08:32 | 42.22786 | 18.84903 | 1401 ft | 177 kts | 313° |
| 2026-05-06 08:32 | 42.23710 | 18.83740 | 1009 ft | 187 kts | 322° |
| 2026-05-06 08:33 | 42.24797 | 18.82813 | 897 ft | 177 kts | 334° |
| 2026-05-06 08:33 | 42.25867 | 18.82130 | 899 ft | 163 kts | 336° |
| 2026-05-06 08:33 | 42.26904 | 18.81491 | 749 ft | 160 kts | 335° |
| 2026-05-06 08:33 | 42.27871 | 18.80911 | 725 ft | 150 kts | 336° |
| 2026-05-06 08:34 | 42.28823 | 18.80364 | 612 ft | 144 kts | 340° |
| 2026-05-06 08:34 | 42.30748 | 18.79567 | 704 ft | 142 kts | 344° |
| 2026-05-06 08:34 | 42.31694 | 18.79152 | 884 ft | 144 kts | 340° |
| 2026-05-06 08:35 | 42.32674 | 18.78691 | 996 ft | 155 kts | 339° |
| 2026-05-06 08:35 | 42.33698 | 18.78117 | 1126 ft | 160 kts | 338° |
| 2026-05-06 08:35 | 42.34714 | 18.77564 | 1045 ft | 156 kts | 339° |
| 2026-05-06 08:35 | 42.35710 | 18.77028 | 883 ft | 152 kts | 338° |
| 2026-05-06 08:36 | 42.36662 | 18.76449 | 706 ft | 146 kts | 333° |
| 2026-05-06 08:36 | 42.37513 | 18.75733 | 547 ft | 146 kts | 326° |
| 2026-05-06 08:36 | 42.38316 | 18.74869 | 319 ft | 145 kts | 319° |
| 2026-05-06 08:36 | 42.39062 | 18.73980 | 180 ft | 145 kts | 320° |
| 2026-05-06 08:37 | 42.39828 | 18.73083 | 51 ft | 147 kts | 319° |
| 2026-05-06 08:37 | 42.40534 | 18.72258 | 38 ft | 100 kts | 319° |
| 2026-05-06 08:37 | 42.40884 | 18.71839 | 37 ft | 57 kts | 322° |
| 2026-05-06 08:37 | 42.41132 | 18.71542 | 32 ft | 41 kts | 319° |
| 2026-05-06 08:38 | 42.41227 | 18.71438 | 32 ft | 3 kts | 317° |
| 2026-05-06 08:38 | 42.41261 | 18.71394 | 33 ft | 9 kts | 317° |
| 2026-05-06 08:38 | 42.41332 | 18.71373 | 34 ft | 12 kts | 37° |
| 2026-05-06 08:38 | 42.41356 | 18.71433 | 36 ft | 3 kts | 89° |
| 2026-05-06 08:39 | 42.41346 | 18.71479 | 36 ft | 7 kts | 129° |
| 2026-05-06 08:39 | 42.41295 | 18.71534 | 37 ft | 8 kts | 139° |
| 2026-05-06 08:39 | 42.41256 | 18.71579 | 37 ft | 6 kts | 139° |
| 2026-05-06 08:39 | 42.41267 | 18.71618 | 38 ft | 6 kts | 41° |
| 2026-05-06 08:40 | 42.41258 | 18.71649 | 38 ft | 1 kts | 167° |
| 2026-05-06 08:40 | 42.41249 | 18.71646 | 38 ft | 0 kts | 212° |